createdAt,value
2018-07-23T00:01:05.190Z,17.49
2018-07-23T00:03:33.360Z,17.51
2018-07-23T00:06:01.416Z,17.48
2018-07-23T00:08:29.390Z,17.49
2018-07-23T00:10:57.628Z,17.44
2018-07-23T00:13:25.620Z,17.45
2018-07-23T00:15:53.696Z,17.43
2018-07-23T00:18:21.890Z,17.49
2018-07-23T00:20:49.845Z,17.43
2018-07-23T00:23:17.825Z,17.45
2018-07-23T00:25:45.760Z,17.44
2018-07-23T00:28:13.751Z,17.43
2018-07-23T00:30:41.924Z,17.45
2018-07-23T00:33:09.904Z,17.43
2018-07-23T00:35:37.964Z,17.43
2018-07-23T00:38:06.035Z,17.43
2018-07-23T00:40:34.109Z,17.45
2018-07-23T00:43:02.075Z,17.42
2018-07-23T00:45:30.152Z,17.45
2018-07-23T00:47:58.120Z,17.48
2018-07-23T00:50:26.192Z,17.43
2018-07-23T00:52:54.152Z,17.45
2018-07-23T00:55:22.160Z,17.47
2018-07-23T00:57:50.196Z,17.48
2018-07-23T01:00:18.282Z,17.53
2018-07-23T01:02:46.601Z,17.46
2018-07-23T01:05:14.709Z,17.49
2018-07-23T01:07:42.691Z,17.43
2018-07-23T01:10:10.759Z,17.44
2018-07-23T01:12:38.727Z,17.46
2018-07-23T01:15:06.896Z,17.48
2018-07-23T01:17:34.879Z,17.49
2018-07-23T01:20:03.152Z,17.46
2018-07-23T01:22:31.092Z,17.42
2018-07-23T01:24:59.191Z,17.35
2018-07-23T01:27:27.282Z,17.33
2018-07-23T01:29:55.220Z,17.32
2018-07-23T01:32:23.236Z,17.33
2018-07-23T01:34:51.319Z,17.32
2018-07-23T01:37:19.446Z,17.28
2018-07-23T01:39:47.412Z,17.32
2018-07-23T01:42:15.376Z,17.33
2018-07-23T01:44:43.377Z,17.35
2018-07-23T01:47:11.491Z,17.34
2018-07-23T01:49:39.497Z,17.34
2018-07-23T01:52:07.708Z,17.35
2018-07-23T01:54:35.723Z,17.32
2018-07-23T01:57:03.905Z,17.35
2018-07-23T01:59:31.971Z,17.31
2018-07-23T02:01:59.951Z,17.35
2018-07-23T02:04:27.907Z,17.34
2018-07-23T02:06:55.865Z,17.35
2018-07-23T02:09:23.948Z,17.32
2018-07-23T02:11:52.132Z,17.30
2018-07-23T02:14:20.282Z,17.31
2018-07-23T02:16:48.268Z,17.33
2018-07-23T02:19:16.235Z,17.37
2018-07-23T02:21:44.212Z,17.42
2018-07-23T02:24:12.169Z,17.41
2018-07-23T02:26:40.244Z,17.40
2018-07-23T02:29:08.212Z,17.38
2018-07-23T02:31:36.185Z,17.34
2018-07-23T02:34:04.357Z,17.34
2018-07-23T02:36:32.332Z,17.34
2018-07-23T02:39:00.291Z,17.41
2018-07-23T02:41:28.373Z,17.41
2018-07-23T02:43:56.336Z,17.41
2018-07-23T02:46:24.506Z,17.44
2018-07-23T02:48:52.477Z,17.45
2018-07-23T02:51:20.673Z,17.38
2018-07-23T02:53:48.588Z,17.39
2018-07-23T02:56:16.688Z,17.38
2018-07-23T02:58:44.660Z,17.41
2018-07-23T03:01:12.730Z,17.39
2018-07-23T03:03:40.702Z,17.40
2018-07-23T03:06:08.841Z,17.39
2018-07-23T03:08:36.844Z,17.41
2018-07-23T03:11:04.903Z,17.45
2018-07-23T03:13:32.964Z,17.43
2018-07-23T03:16:01.059Z,17.41
2018-07-23T03:18:29.037Z,17.45
2018-07-23T03:20:57.092Z,17.42
2018-07-23T03:23:25.161Z,17.43
2018-07-23T03:25:53.135Z,17.40
2018-07-23T03:28:21.199Z,17.39
2018-07-23T03:30:49.171Z,17.38
2018-07-23T03:33:17.132Z,17.39
2018-07-23T03:35:45.171Z,17.41
2018-07-23T03:38:13.191Z,17.41
2018-07-23T03:40:41.248Z,17.45
2018-07-23T03:43:09.465Z,17.48
2018-07-23T03:45:37.693Z,17.42
2018-07-23T03:48:06.397Z,17.39
2018-07-23T03:50:34.481Z,17.40
2018-07-23T03:53:02.629Z,17.38
2018-07-23T03:55:30.704Z,17.37
2018-07-23T03:57:58.872Z,17.38
2018-07-23T04:00:27.151Z,17.40
2018-07-23T04:02:55.128Z,17.41
2018-07-23T04:05:23.295Z,17.39
2018-07-23T04:07:51.264Z,17.36
2018-07-23T04:10:19.343Z,17.33
2018-07-23T04:12:47.405Z,17.32
2018-07-23T04:15:15.604Z,17.30
2018-07-23T04:17:48.116Z,17.35
2018-07-23T04:20:16.113Z,17.40
2018-07-23T04:22:44.322Z,17.39
2018-07-23T04:25:12.367Z,17.41
2018-07-23T04:27:40.353Z,17.35
2018-07-23T04:30:08.480Z,17.37
2018-07-23T04:32:37.291Z,17.39
2018-07-23T04:35:05.236Z,17.40
2018-07-23T04:37:33.436Z,17.43
2018-07-23T04:40:01.404Z,17.41
2018-07-23T04:42:29.372Z,17.43
2018-07-23T04:44:57.543Z,17.42
2018-07-23T04:47:25.844Z,17.44
2018-07-23T04:49:53.879Z,17.47
2018-07-23T04:52:21.770Z,17.50
2018-07-23T04:54:49.728Z,17.53
2018-07-23T04:57:18.015Z,17.52
2018-07-23T04:59:45.975Z,17.54
2018-07-23T05:02:13.960Z,17.57
2018-07-23T05:04:41.913Z,17.61
2018-07-23T05:07:09.860Z,17.66
2018-07-23T05:09:38.068Z,17.68
2018-07-23T05:12:07.004Z,17.72
2018-07-23T05:14:35.044Z,17.66
2018-07-23T05:17:03.313Z,17.73
2018-07-23T05:19:31.293Z,17.76
2018-07-23T05:21:59.774Z,17.81
2018-07-23T05:24:28.254Z,17.88
2018-07-23T05:26:57.309Z,17.94
2018-07-23T05:29:25.836Z,18.02
2018-07-23T05:31:53.960Z,18.18
2018-07-23T05:34:21.943Z,18.26
2018-07-23T05:36:49.928Z,18.34
2018-07-23T05:39:18.201Z,18.37
2018-07-23T05:41:46.379Z,18.39
2018-07-23T05:44:14.411Z,18.40
2018-07-23T05:46:42.410Z,18.45
2018-07-23T05:49:10.483Z,18.57
2018-07-23T05:51:38.450Z,18.55
2018-07-23T05:54:06.931Z,18.63
2018-07-23T05:56:35.072Z,18.64
2018-07-23T05:59:03.184Z,18.68
2018-07-23T06:01:31.624Z,18.76
2018-07-23T06:04:00.231Z,18.90
2018-07-23T06:06:28.258Z,18.91
2018-07-23T06:08:56.249Z,18.96
2018-07-23T06:11:24.228Z,18.98
2018-07-23T06:13:52.412Z,19.13
2018-07-23T06:16:20.276Z,19.33
2018-07-23T06:18:48.252Z,19.32
2018-07-23T06:21:16.223Z,19.34
2018-07-23T06:23:44.288Z,19.28
2018-07-23T06:26:12.375Z,19.32
2018-07-23T06:28:40.537Z,19.35
2018-07-23T06:31:08.620Z,19.37
2018-07-23T06:33:36.572Z,19.33
2018-07-23T06:36:04.752Z,19.30
2018-07-23T06:38:32.964Z,19.19
2018-07-23T06:41:01.006Z,19.13
2018-07-23T06:43:28.924Z,19.09
2018-07-23T06:45:57.012Z,19.16
2018-07-23T06:48:25.012Z,19.26
2018-07-23T06:50:52.994Z,19.18
2018-07-23T06:53:21.044Z,19.19
2018-07-23T06:55:48.856Z,19.13
2018-07-23T06:58:16.671Z,19.15
2018-07-23T07:00:44.645Z,19.29
2018-07-23T07:03:12.716Z,19.46
2018-07-23T07:05:40.653Z,19.57
2018-07-23T07:08:08.669Z,19.67
2018-07-23T07:10:36.628Z,19.72
2018-07-23T07:13:04.600Z,19.78
2018-07-23T07:15:32.759Z,19.84
2018-07-23T07:18:00.736Z,19.83
2018-07-23T07:20:28.708Z,19.94
2018-07-23T07:22:56.783Z,20.04
2018-07-23T07:25:24.796Z,20.07
2018-07-23T07:27:52.817Z,20.13
2018-07-23T07:30:20.887Z,20.19
2018-07-23T07:32:48.829Z,20.24
2018-07-23T07:35:16.823Z,20.32
2018-07-23T07:37:44.891Z,20.54
2018-07-23T07:40:12.852Z,20.65
2018-07-23T07:42:40.829Z,20.72
2018-07-23T07:45:08.902Z,20.85
2018-07-23T07:47:36.873Z,20.82
2018-07-23T07:50:05.239Z,20.59
2018-07-23T07:52:33.213Z,20.61
2018-07-23T07:55:01.180Z,20.64
2018-07-23T07:57:29.159Z,20.77
2018-07-23T07:59:57.327Z,20.82
2018-07-23T08:02:25.379Z,20.87
2018-07-23T08:04:53.376Z,20.91
2018-07-23T08:07:21.306Z,20.96
2018-07-23T08:09:49.280Z,20.96
2018-07-23T08:12:17.263Z,21.12
2018-07-23T08:14:45.458Z,21.25
2018-07-23T08:17:13.503Z,21.45
2018-07-23T08:19:41.483Z,21.42
2018-07-23T08:22:09.427Z,21.25
2018-07-23T08:24:37.504Z,21.34
2018-07-23T08:27:05.915Z,21.58
2018-07-23T08:29:34.183Z,21.53
2018-07-23T08:32:02.704Z,21.26
2018-07-23T08:34:30.865Z,21.20
2018-07-23T08:36:59.108Z,21.36
2018-07-23T08:39:27.165Z,21.28
2018-07-23T08:41:55.157Z,21.35
2018-07-23T08:44:23.128Z,21.38
2018-07-23T08:46:51.093Z,21.57
2018-07-23T08:49:19.163Z,21.86
2018-07-23T08:51:47.127Z,22.03
2018-07-23T08:54:15.668Z,23.07
2018-07-23T08:56:43.921Z,24.50
2018-07-23T08:59:11.961Z,25.34
2018-07-23T09:01:39.900Z,25.98
2018-07-23T09:04:08.081Z,26.14
2018-07-23T09:06:36.164Z,26.33
2018-07-23T09:09:06.186Z,26.30
2018-07-23T09:11:34.260Z,26.33
2018-07-23T09:14:02.541Z,26.03
2018-07-23T09:16:30.588Z,25.98
2018-07-23T09:18:58.567Z,26.09
2018-07-23T09:21:26.632Z,25.89
2018-07-23T09:23:54.681Z,26.05
2018-07-23T09:26:22.564Z,26.06
2018-07-23T09:28:50.556Z,26.00
2018-07-23T09:31:18.557Z,25.99
2018-07-23T09:33:46.497Z,25.70
2018-07-23T09:36:14.428Z,25.52
2018-07-23T09:38:42.428Z,25.58
2018-07-23T09:41:10.520Z,25.88
2018-07-23T09:43:38.472Z,25.87
2018-07-23T09:46:06.454Z,26.16
2018-07-23T09:48:34.732Z,26.34
2018-07-23T09:51:02.983Z,26.46
2018-07-23T09:53:30.961Z,26.06
2018-07-23T09:55:58.920Z,26.33
2018-07-23T09:58:27.035Z,26.59
2018-07-23T10:01:00.660Z,26.24
2018-07-23T10:03:28.748Z,26.05
2018-07-23T10:05:56.798Z,25.82
2018-07-23T10:08:24.804Z,25.41
2018-07-23T10:10:52.885Z,25.08
2018-07-23T10:13:20.856Z,25.25
2018-07-23T10:15:48.826Z,24.88
2018-07-23T10:18:16.779Z,24.70
2018-07-23T10:20:44.768Z,25.17
2018-07-23T10:23:12.715Z,25.84
2018-07-23T10:25:40.701Z,26.41
2018-07-23T10:28:08.649Z,26.77
2018-07-23T10:30:37.037Z,26.82
2018-07-23T10:33:05.095Z,26.59
2018-07-23T10:35:33.080Z,25.94
2018-07-23T10:38:01.164Z,25.43
2018-07-23T10:40:29.116Z,25.57
2018-07-23T10:42:57.085Z,25.81
2018-07-23T10:45:25.161Z,25.71
2018-07-23T10:47:53.199Z,26.15
2018-07-23T10:50:21.300Z,26.73
2018-07-23T10:52:49.268Z,27.00
2018-07-23T10:55:17.339Z,27.05
2018-07-23T10:57:45.424Z,27.16
2018-07-23T11:00:13.382Z,26.88
2018-07-23T11:02:41.376Z,26.91
2018-07-23T11:05:09.932Z,27.49
2018-07-23T11:07:38.004Z,27.84
2018-07-23T11:10:07.145Z,28.08
2018-07-23T11:12:35.561Z,27.94
2018-07-23T11:15:04.489Z,27.78
2018-07-23T11:17:32.411Z,27.74
2018-07-23T11:20:00.413Z,28.07
2018-07-23T11:22:28.476Z,28.27
2018-07-23T11:24:56.462Z,28.44
2018-07-23T11:27:24.727Z,28.23
2018-07-23T11:29:52.720Z,28.40
2018-07-23T11:32:20.860Z,28.27
2018-07-23T11:34:48.856Z,28.31
2018-07-23T11:37:16.900Z,28.20
2018-07-23T11:39:44.980Z,28.31
2018-07-23T11:42:12.943Z,28.23
2018-07-23T11:44:41.129Z,28.01
2018-07-23T11:47:09.081Z,27.39
2018-07-23T11:49:37.104Z,26.68
2018-07-23T11:52:05.137Z,26.49
2018-07-23T11:54:33.108Z,26.89
2018-07-23T11:57:01.088Z,26.91
2018-07-23T11:59:29.064Z,26.90
2018-07-23T12:01:57.160Z,26.36
2018-07-23T12:04:25.221Z,25.76
2018-07-23T12:06:53.258Z,25.13
2018-07-23T12:09:21.196Z,25.23
2018-07-23T12:11:49.203Z,25.60
2018-07-23T12:14:17.360Z,26.03
2018-07-23T12:16:45.427Z,26.43
2018-07-23T12:19:13.409Z,26.58
2018-07-23T12:21:41.581Z,26.79
2018-07-23T12:24:09.669Z,26.88
2018-07-23T12:26:37.923Z,26.89
2018-07-23T12:29:05.888Z,26.95
2018-07-23T12:31:34.024Z,26.86
2018-07-23T12:34:02.085Z,26.81
2018-07-23T12:36:30.308Z,26.91
2018-07-23T12:38:58.387Z,27.00
2018-07-23T12:41:26.349Z,26.94
2018-07-23T12:43:54.301Z,27.09
2018-07-23T12:46:22.255Z,27.23
2018-07-23T12:48:50.255Z,27.22
2018-07-23T12:51:18.321Z,27.16
2018-07-23T12:53:46.409Z,26.97
2018-07-23T12:56:14.544Z,27.12
2018-07-23T12:58:42.545Z,27.39
2018-07-23T13:01:10.508Z,27.49
2018-07-23T13:03:38.484Z,27.48
2018-07-23T13:06:06.451Z,27.42
2018-07-23T13:08:34.522Z,27.36
2018-07-23T13:11:02.484Z,27.44
2018-07-23T13:13:30.467Z,27.47
2018-07-23T13:15:58.704Z,27.33
2018-07-23T13:18:26.784Z,27.36
2018-07-23T13:20:54.764Z,27.47
2018-07-23T13:23:22.749Z,27.65
2018-07-23T13:25:50.766Z,27.82
2018-07-23T13:28:18.688Z,28.03
2018-07-23T13:30:46.761Z,28.44
2018-07-23T13:33:14.921Z,28.38
2018-07-23T13:35:42.898Z,28.49
2018-07-23T13:38:11.153Z,28.61
2018-07-23T13:40:39.128Z,28.89
2018-07-23T13:43:07.316Z,29.08
2018-07-23T13:45:35.282Z,29.00
2018-07-23T13:48:03.330Z,28.92
2018-07-23T13:50:31.325Z,28.57
2018-07-23T13:52:59.277Z,28.50
2018-07-23T13:55:27.252Z,28.41
2018-07-23T13:57:55.245Z,28.32
2018-07-23T14:00:23.171Z,28.32
2018-07-23T14:02:51.144Z,27.60
2018-07-23T14:05:19.235Z,27.13
2018-07-23T14:07:47.207Z,26.65
2018-07-23T14:10:15.144Z,26.33
2018-07-23T14:12:43.248Z,26.07
2018-07-23T14:15:11.376Z,26.12
2018-07-23T14:17:39.379Z,26.61
2018-07-23T14:20:07.563Z,26.94
2018-07-23T14:22:35.624Z,27.27
2018-07-23T14:25:04.114Z,27.43
2018-07-23T14:27:32.161Z,27.27
2018-07-23T14:30:00.266Z,27.62
2018-07-23T14:32:28.509Z,27.72
2018-07-23T14:34:56.593Z,27.77
2018-07-23T14:37:24.676Z,27.76
2018-07-23T14:39:52.646Z,28.05
2018-07-23T14:42:20.887Z,28.17
2018-07-23T14:44:48.888Z,28.21
2018-07-23T14:47:17.087Z,28.26
2018-07-23T14:49:45.361Z,27.90
2018-07-23T14:52:13.341Z,28.08
2018-07-23T14:54:41.364Z,28.13
2018-07-23T14:57:09.444Z,28.37
2018-07-23T14:59:37.412Z,28.57
2018-07-23T15:02:05.592Z,28.73
2018-07-23T15:04:33.556Z,28.69
2018-07-23T15:07:01.531Z,28.41
2018-07-23T15:09:29.490Z,28.71
2018-07-23T15:11:57.767Z,28.64
2018-07-23T15:14:25.746Z,28.47
2018-07-23T15:16:53.701Z,27.89
2018-07-23T15:19:21.883Z,27.78
2018-07-23T15:21:49.950Z,27.76
2018-07-23T15:24:18.025Z,28.15
2018-07-23T15:26:45.999Z,28.10
2018-07-23T15:29:13.966Z,28.31
2018-07-23T15:31:41.924Z,28.04
2018-07-23T15:34:10.077Z,28.11
2018-07-23T15:36:38.228Z,28.27
2018-07-23T15:39:08.628Z,28.33
2018-07-23T15:41:36.773Z,28.34
2018-07-23T15:44:05.157Z,28.45
2018-07-23T15:46:33.304Z,28.52
2018-07-23T15:49:01.304Z,28.43
2018-07-23T15:51:29.348Z,28.37
2018-07-23T15:53:57.759Z,28.34
2018-07-23T15:56:25.915Z,28.10
2018-07-23T15:58:53.883Z,27.99
2018-07-23T16:01:21.848Z,27.94
2018-07-23T16:03:49.800Z,27.91
2018-07-23T16:06:17.784Z,27.91
2018-07-23T16:08:45.759Z,27.94
2018-07-23T16:11:13.823Z,28.01
2018-07-23T16:13:41.802Z,28.07
2018-07-23T16:16:09.768Z,28.09
2018-07-23T16:18:37.846Z,27.76
2018-07-23T16:21:06.104Z,27.79
2018-07-23T16:23:34.080Z,27.96
2018-07-23T16:26:02.051Z,27.86
2018-07-23T16:28:30.163Z,27.83
2018-07-23T16:30:58.307Z,27.90
2018-07-23T16:33:26.299Z,27.90
2018-07-23T16:35:54.332Z,27.87
2018-07-23T16:38:22.291Z,27.73
2018-07-23T16:40:50.370Z,27.57
2018-07-23T16:43:18.345Z,27.54
2018-07-23T16:45:46.360Z,27.60
2018-07-23T16:48:14.488Z,27.67
2018-07-23T16:50:42.535Z,27.56
2018-07-23T16:53:10.599Z,27.49
2018-07-23T16:55:38.727Z,27.20
2018-07-23T16:58:06.771Z,27.19
2018-07-23T17:00:34.766Z,27.09
2018-07-23T17:03:02.810Z,27.11
2018-07-23T17:05:30.793Z,27.12
2018-07-23T17:07:58.819Z,27.04
2018-07-23T17:10:26.799Z,27.02
2018-07-23T17:12:54.986Z,26.99
2018-07-23T17:15:22.962Z,26.86
2018-07-23T17:17:50.969Z,26.94
2018-07-23T17:20:19.102Z,26.90
2018-07-23T17:22:47.114Z,26.88
2018-07-23T17:25:15.143Z,26.89
2018-07-23T17:27:43.307Z,26.82
2018-07-23T17:30:11.698Z,26.70
2018-07-23T17:32:40.817Z,26.63
2018-07-23T17:35:10.028Z,26.58
2018-07-23T17:37:38.186Z,26.52
2018-07-23T17:40:06.519Z,26.40
2018-07-23T17:42:34.488Z,26.35
2018-07-23T17:45:02.781Z,26.30
2018-07-23T17:47:30.747Z,26.23
2018-07-23T17:49:59.238Z,26.17
2018-07-23T17:52:27.209Z,26.13
2018-07-23T17:54:55.474Z,26.11
2018-07-23T17:57:24.027Z,26.01
2018-07-23T17:59:52.064Z,25.97
2018-07-23T18:02:20.380Z,25.87
2018-07-23T18:04:48.619Z,25.83
2018-07-23T18:07:16.673Z,25.71
2018-07-23T18:09:44.691Z,25.57
2018-07-23T18:12:12.827Z,25.49
2018-07-23T18:14:40.955Z,25.35
2018-07-23T18:17:09.056Z,25.23
2018-07-23T18:19:37.271Z,25.14
2018-07-23T18:22:05.287Z,25.06
2018-07-23T18:24:33.362Z,24.90
2018-07-23T18:27:01.656Z,24.81
2018-07-23T18:29:29.827Z,24.76
2018-07-23T18:31:58.089Z,24.70
2018-07-23T18:34:26.170Z,24.54
2018-07-23T18:36:54.265Z,24.34
2018-07-23T18:39:22.299Z,24.26
2018-07-23T18:41:50.287Z,24.24
2018-07-23T18:44:18.472Z,24.12
2018-07-23T18:46:46.407Z,23.95
2018-07-23T18:49:26.987Z,23.74
2018-07-23T18:51:55.496Z,23.71
2018-07-23T18:54:24.676Z,23.47
2018-07-23T18:56:56.144Z,23.31
2018-07-23T19:01:52.533Z,23.19
2018-07-23T19:04:20.624Z,23.08
2018-07-23T19:06:49.039Z,22.98
2018-07-23T19:09:18.135Z,22.81
2018-07-23T19:33:19.894Z,24.58
2018-07-23T19:35:49.982Z,24.24
2018-07-23T19:38:19.716Z,23.69
2018-07-23T19:40:49.468Z,23.24
2018-07-23T19:43:19.134Z,22.86
2018-07-23T19:45:48.708Z,22.58
2018-07-23T19:48:18.254Z,22.37
2018-07-23T19:50:47.805Z,22.19
2018-07-23T19:53:17.639Z,22.02
2018-07-23T19:55:47.234Z,21.90
2018-07-23T19:58:17.028Z,21.79
2018-07-23T20:00:46.682Z,21.70
2018-07-23T20:03:16.330Z,21.61
2018-07-23T20:05:45.954Z,21.54
2018-07-23T20:08:15.580Z,21.45
2018-07-23T20:10:45.159Z,21.36
2018-07-23T20:13:14.841Z,21.30
2018-07-23T20:15:44.485Z,21.24
2018-07-23T20:18:14.412Z,21.15
2018-07-23T20:20:44.270Z,21.06
2018-07-23T20:23:13.887Z,21.01
2018-07-23T20:25:43.544Z,20.96
2018-07-23T20:28:13.221Z,20.91
2018-07-23T20:30:42.782Z,20.87
2018-07-23T20:33:12.387Z,20.82
2018-07-23T20:35:42.038Z,20.77
2018-07-23T20:38:11.653Z,20.75
2018-07-23T20:40:41.328Z,20.66
2018-07-23T20:43:10.944Z,20.61
2018-07-23T20:45:40.644Z,20.58
2018-07-23T20:48:10.342Z,20.54
2018-07-23T20:50:39.897Z,20.49
2018-07-23T20:53:09.481Z,20.43
2018-07-23T20:55:39.118Z,20.39
2018-07-23T20:58:08.734Z,20.37
2018-07-23T21:00:38.418Z,20.34
2018-07-23T21:03:08.237Z,20.29
2018-07-23T21:05:37.993Z,20.26
2018-07-23T21:08:07.578Z,20.19
2018-07-23T21:10:37.215Z,20.15
2018-07-23T21:13:07.124Z,20.14
2018-07-23T21:15:36.722Z,20.12
2018-07-23T21:18:06.683Z,20.06
2018-07-23T21:20:36.445Z,20.00
2018-07-23T21:23:06.325Z,19.96
2018-07-23T21:25:35.991Z,19.93
2018-07-23T21:28:05.748Z,19.92
2018-07-23T21:30:35.340Z,19.88
2018-07-23T21:33:05.069Z,19.83
2018-07-23T21:35:34.665Z,19.78
2018-07-23T21:38:04.341Z,19.74
2018-07-23T21:40:34.011Z,19.70
2018-07-23T21:43:04.022Z,19.70
2018-07-23T21:45:33.610Z,19.64
2018-07-23T21:48:03.193Z,19.60
2018-07-23T21:50:32.944Z,19.59
2018-07-23T21:53:02.740Z,19.55
2018-07-23T21:55:32.393Z,19.50
2018-07-23T21:58:02.018Z,19.51
2018-07-23T22:00:32.690Z,19.47
2018-07-23T22:03:02.354Z,19.44
2018-07-23T22:05:31.929Z,19.43
2018-07-23T22:08:01.508Z,19.41
2018-07-23T22:10:31.114Z,19.36
2018-07-23T22:13:00.689Z,19.34
2018-07-23T22:15:30.326Z,19.33
2018-07-23T22:17:59.935Z,19.30
2018-07-23T22:20:29.670Z,19.27
2018-07-23T22:22:59.261Z,19.24
2018-07-23T22:25:28.878Z,19.17
2018-07-23T22:27:58.490Z,19.16
2018-07-23T22:30:28.082Z,19.13
2018-07-23T22:32:57.754Z,19.09
2018-07-23T22:35:27.373Z,19.06
2018-07-23T22:37:56.938Z,19.04
2018-07-23T22:40:26.522Z,19.00
2018-07-23T22:42:56.049Z,18.95
2018-07-23T22:45:25.605Z,18.93
2018-07-23T22:47:55.253Z,18.89
2018-07-23T22:50:24.896Z,18.87
2018-07-23T22:52:54.461Z,18.86
2018-07-23T22:55:24.031Z,18.85
2018-07-23T22:57:53.581Z,18.83
2018-07-23T23:00:23.138Z,18.79
2018-07-23T23:02:52.739Z,18.75
2018-07-23T23:05:22.291Z,18.75
2018-07-23T23:07:51.936Z,18.70
2018-07-23T23:10:21.501Z,18.67
2018-07-23T23:12:51.098Z,18.63
2018-07-23T23:15:20.685Z,18.60
2018-07-23T23:17:50.301Z,18.55
2018-07-23T23:20:19.874Z,18.54
2018-07-23T23:22:49.451Z,18.51
2018-07-23T23:25:19.136Z,18.48
2018-07-23T23:27:48.688Z,18.45
2018-07-23T23:30:18.240Z,18.44
2018-07-23T23:32:47.977Z,18.41
2018-07-23T23:35:17.551Z,18.38
2018-07-23T23:37:47.188Z,18.36
2018-07-23T23:40:17.093Z,18.35
2018-07-23T23:42:46.767Z,18.36
2018-07-23T23:45:16.425Z,18.34
2018-07-23T23:47:46.026Z,18.28
2018-07-23T23:50:15.674Z,18.24
2018-07-23T23:52:45.386Z,18.22
2018-07-23T23:55:14.954Z,18.21
2018-07-23T23:57:44.506Z,18.15
